Air Navigation Services of Czech Republic
Airport: LKTB Updated:  28.01.2021 02:24:24  UTC
 METAR LKTB 28.01. 02:00 ...
METAR LKTB 280200Z 23001KT CAVOK M03/M04 Q1012 NOSIG RMK REG QNH 1006=
 TAF LKTB 27.01. 23:00 ...
TAF LKTB 272300Z 2800/2906 VRB02KT CAVOK      BECMG 2802/2804 9999 BKN020      TEMPO 2804/2815 18008KT 4000 -SN BR BKN015      BECMG 2815/2817 5000 SN BKN011      TEMPO 2817/2906 0600 SN FG BKN004=